sensor_id;sensor_type;location;lat;lon;timestamp;P1;durP1;ratioP1;P2;durP2;ratioP2
3068;SDS011;1545;51.728;8.796;2023-12-22T00:00:12;46.90;;;8.07;;
3068;SDS011;1545;51.728;8.796;2023-12-22T00:02:38;53.77;;;7.63;;
3068;SDS011;1545;51.728;8.796;2023-12-22T00:05:03;45.53;;;7.37;;
3068;SDS011;1545;51.728;8.796;2023-12-22T00:07:29;47.57;;;7.70;;
3068;SDS011;1545;51.728;8.796;2023-12-22T00:09:54;39.57;;;7.37;;
3068;SDS011;1545;51.728;8.796;2023-12-22T00:12:20;43.43;;;7.17;;
3068;SDS011;1545;51.728;8.796;2023-12-22T00:14:45;46.77;;;8.20;;
3068;SDS011;1545;51.728;8.796;2023-12-22T00:17:11;44.27;;;6.90;;
3068;SDS011;1545;51.728;8.796;2023-12-22T00:19:36;43.33;;;7.47;;
3068;SDS011;1545;51.728;8.796;2023-12-22T00:22:02;40.40;;;6.57;;
3068;SDS011;1545;51.728;8.796;2023-12-22T00:24:28;42.47;;;6.87;;
3068;SDS011;1545;51.728;8.796;2023-12-22T00:26:54;39.77;;;6.67;;
3068;SDS011;1545;51.728;8.796;2023-12-22T00:29:19;42.03;;;6.83;;
3068;SDS011;1545;51.728;8.796;2023-12-22T00:31:45;44.10;;;6.63;;
3068;SDS011;1545;51.728;8.796;2023-12-22T00:34:10;35.00;;;7.00;;
3068;SDS011;1545;51.728;8.796;2023-12-22T00:36:36;40.13;;;7.70;;
3068;SDS011;1545;51.728;8.796;2023-12-22T00:39:01;38.43;;;6.37;;
3068;SDS011;1545;51.728;8.796;2023-12-22T00:41:28;36.10;;;6.50;;
3068;SDS011;1545;51.728;8.796;2023-12-22T00:43:53;46.87;;;6.30;;
3068;SDS011;1545;51.728;8.796;2023-12-22T00:46:18;40.97;;;6.90;;
3068;SDS011;1545;51.728;8.796;2023-12-22T00:48:45;46.93;;;7.37;;
3068;SDS011;1545;51.728;8.796;2023-12-22T00:51:10;37.03;;;6.93;;
3068;SDS011;1545;51.728;8.796;2023-12-22T00:53:36;31.83;;;6.43;;
3068;SDS011;1545;51.728;8.796;2023-12-22T00:56:01;31.63;;;5.67;;
3068;SDS011;1545;51.728;8.796;2023-12-22T00:58:31;35.60;;;6.63;;
3068;SDS011;1545;51.728;8.796;2023-12-22T01:00:56;34.37;;;6.10;;
3068;SDS011;1545;51.728;8.796;2023-12-22T01:03:22;37.67;;;5.97;;
3068;SDS011;1545;51.728;8.796;2023-12-22T01:05:47;33.50;;;6.03;;
3068;SDS011;1545;51.728;8.796;2023-12-22T01:08:13;37.17;;;6.23;;
3068;SDS011;1545;51.728;8.796;2023-12-22T01:10:38;34.43;;;5.87;;
3068;SDS011;1545;51.728;8.796;2023-12-22T01:13:04;37.60;;;5.77;;
3068;SDS011;1545;51.728;8.796;2023-12-22T01:15:29;29.17;;;5.77;;
3068;SDS011;1545;51.728;8.796;2023-12-22T01:17:55;26.47;;;5.07;;
3068;SDS011;1545;51.728;8.796;2023-12-22T01:20:20;27.67;;;5.83;;
3068;SDS011;1545;51.728;8.796;2023-12-22T01:22:45;33.03;;;6.50;;
3068;SDS011;1545;51.728;8.796;2023-12-22T01:25:11;30.10;;;5.53;;
3068;SDS011;1545;51.728;8.796;2023-12-22T01:27:36;52.57;;;6.63;;
3068;SDS011;1545;51.728;8.796;2023-12-22T01:30:02;31.50;;;5.73;;
3068;SDS011;1545;51.728;8.796;2023-12-22T01:32:28;41.57;;;6.20;;
3068;SDS011;1545;51.728;8.796;2023-12-22T01:34:59;26.77;;;5.47;;
3068;SDS011;1545;51.728;8.796;2023-12-22T01:37:28;36.53;;;5.30;;
3068;SDS011;1545;51.728;8.796;2023-12-22T01:39:54;30.50;;;5.40;;
3068;SDS011;1545;51.728;8.796;2023-12-22T01:42:20;43.43;;;6.40;;
3068;SDS011;1545;51.728;8.796;2023-12-22T01:44:45;29.80;;;5.77;;
3068;SDS011;1545;51.728;8.796;2023-12-22T01:47:10;38.93;;;6.67;;
3068;SDS011;1545;51.728;8.796;2023-12-22T01:49:36;28.40;;;5.80;;
3068;SDS011;1545;51.728;8.796;2023-12-22T01:52:02;38.90;;;5.97;;
3068;SDS011;1545;51.728;8.796;2023-12-22T01:54:27;34.73;;;5.60;;
3068;SDS011;1545;51.728;8.796;2023-12-22T01:56:54;26.57;;;5.03;;
3068;SDS011;1545;51.728;8.796;2023-12-22T01:59:20;33.23;;;5.30;;
3068;SDS011;1545;51.728;8.796;2023-12-22T02:01:46;28.53;;;5.77;;
3068;SDS011;1545;51.728;8.796;2023-12-22T02:04:12;31.63;;;5.30;;
3068;SDS011;1545;51.728;8.796;2023-12-22T02:06:39;26.53;;;5.40;;
3068;SDS011;1545;51.728;8.796;2023-12-22T02:09:05;31.80;;;5.63;;
3068;SDS011;1545;51.728;8.796;2023-12-22T02:11:31;29.47;;;6.07;;
3068;SDS011;1545;51.728;8.796;2023-12-22T02:13:56;33.37;;;5.77;;
3068;SDS011;1545;51.728;8.796;2023-12-22T02:19:04;24.67;;;5.07;;
3068;SDS011;1545;51.728;8.796;2023-12-22T02:21:59;32.93;;;5.53;;
3068;SDS011;1545;51.728;8.796;2023-12-22T02:24:34;25.33;;;4.57;;
3068;SDS011;1545;51.728;8.796;2023-12-22T02:27:03;36.90;;;5.47;;
3068;SDS011;1545;51.728;8.796;2023-12-22T02:29:37;23.20;;;4.37;;
3068;SDS011;1545;51.728;8.796;2023-12-22T02:32:10;21.53;;;4.00;;
3068;SDS011;1545;51.728;8.796;2023-12-22T02:34:41;32.73;;;5.00;;
3068;SDS011;1545;51.728;8.796;2023-12-22T02:37:08;29.37;;;5.10;;
3068;SDS011;1545;51.728;8.796;2023-12-22T02:39:35;19.97;;;4.83;;
3068;SDS011;1545;51.728;8.796;2023-12-22T02:42:02;35.03;;;5.57;;
3068;SDS011;1545;51.728;8.796;2023-12-22T02:44:29;30.43;;;4.83;;
3068;SDS011;1545;51.728;8.796;2023-12-22T02:46:55;27.33;;;5.57;;
3068;SDS011;1545;51.728;8.796;2023-12-22T02:49:23;45.17;;;6.40;;
3068;SDS011;1545;51.728;8.796;2023-12-22T02:51:48;34.70;;;6.30;;
3068;SDS011;1545;51.728;8.796;2023-12-22T02:54:13;39.73;;;7.17;;
3068;SDS011;1545;51.728;8.796;2023-12-22T02:56:39;36.77;;;5.83;;
3068;SDS011;1545;51.728;8.796;2023-12-22T02:59:04;48.10;;;6.77;;
3068;SDS011;1545;51.728;8.796;2023-12-22T03:01:30;32.80;;;6.23;;
3068;SDS011;1545;51.728;8.796;2023-12-22T03:03:55;46.23;;;6.50;;
3068;SDS011;1545;51.728;8.796;2023-12-22T03:06:21;34.07;;;6.20;;
3068;SDS011;1545;51.728;8.796;2023-12-22T03:08:46;40.03;;;5.47;;
3068;SDS011;1545;51.728;8.796;2023-12-22T03:11:12;42.07;;;6.77;;
3068;SDS011;1545;51.728;8.796;2023-12-22T03:13:37;41.73;;;6.47;;
3068;SDS011;1545;51.728;8.796;2023-12-22T03:16:03;39.00;;;6.23;;
3068;SDS011;1545;51.728;8.796;2023-12-22T03:18:33;44.27;;;6.00;;
3068;SDS011;1545;51.728;8.796;2023-12-22T03:20:58;31.93;;;5.43;;
3068;SDS011;1545;51.728;8.796;2023-12-22T03:23:24;30.80;;;5.47;;
3068;SDS011;1545;51.728;8.796;2023-12-22T03:25:49;39.67;;;6.10;;
3068;SDS011;1545;51.728;8.796;2023-12-22T03:28:15;34.33;;;5.50;;
3068;SDS011;1545;51.728;8.796;2023-12-22T03:30:40;32.97;;;6.20;;
3068;SDS011;1545;51.728;8.796;2023-12-22T03:33:06;38.23;;;5.50;;
3068;SDS011;1545;51.728;8.796;2023-12-22T03:35:31;41.47;;;6.10;;
3068;SDS011;1545;51.728;8.796;2023-12-22T03:37:57;44.57;;;5.60;;
3068;SDS011;1545;51.728;8.796;2023-12-22T03:40:22;36.53;;;5.47;;
3068;SDS011;1545;51.728;8.796;2023-12-22T03:42:48;41.83;;;5.40;;
3068;SDS011;1545;51.728;8.796;2023-12-22T03:45:13;31.07;;;5.03;;
3068;SDS011;1545;51.728;8.796;2023-12-22T03:47:39;34.93;;;6.03;;
3068;SDS011;1545;51.728;8.796;2023-12-22T03:50:04;26.87;;;5.23;;
3068;SDS011;1545;51.728;8.796;2023-12-22T03:52:31;35.90;;;5.30;;
3068;SDS011;1545;51.728;8.796;2023-12-22T03:54:57;34.47;;;5.63;;
3068;SDS011;1545;51.728;8.796;2023-12-22T03:57:22;34.57;;;5.70;;
3068;SDS011;1545;51.728;8.796;2023-12-22T03:59:48;34.10;;;6.67;;
3068;SDS011;1545;51.728;8.796;2023-12-22T04:02:13;44.07;;;6.30;;
3068;SDS011;1545;51.728;8.796;2023-12-22T04:04:39;38.40;;;5.77;;
3068;SDS011;1545;51.728;8.796;2023-12-22T04:07:04;33.27;;;5.33;;
3068;SDS011;1545;51.728;8.796;2023-12-22T04:09:30;33.93;;;5.47;;
3068;SDS011;1545;51.728;8.796;2023-12-22T04:11:55;34.23;;;4.77;;
3068;SDS011;1545;51.728;8.796;2023-12-22T04:14:21;41.90;;;4.87;;
3068;SDS011;1545;51.728;8.796;2023-12-22T04:16:46;32.73;;;5.17;;
3068;SDS011;1545;51.728;8.796;2023-12-22T04:19:12;33.97;;;5.17;;
3068;SDS011;1545;51.728;8.796;2023-12-22T04:21:37;33.03;;;5.23;;
3068;SDS011;1545;51.728;8.796;2023-12-22T04:24:03;36.53;;;4.90;;
3068;SDS011;1545;51.728;8.796;2023-12-22T04:26:29;32.60;;;4.30;;
3068;SDS011;1545;51.728;8.796;2023-12-22T04:28:54;23.20;;;3.60;;
3068;SDS011;1545;51.728;8.796;2023-12-22T04:31:20;16.50;;;3.30;;
3068;SDS011;1545;51.728;8.796;2023-12-22T04:33:46;11.73;;;2.57;;
3068;SDS011;1545;51.728;8.796;2023-12-22T04:36:11;15.07;;;3.07;;
3068;SDS011;1545;51.728;8.796;2023-12-22T04:38:37;15.23;;;2.93;;
3068;SDS011;1545;51.728;8.796;2023-12-22T04:41:03;10.03;;;2.70;;
3068;SDS011;1545;51.728;8.796;2023-12-22T04:43:28;14.60;;;2.60;;
3068;SDS011;1545;51.728;8.796;2023-12-22T04:45:54;14.73;;;3.03;;
3068;SDS011;1545;51.728;8.796;2023-12-22T04:48:19;18.00;;;2.87;;
3068;SDS011;1545;51.728;8.796;2023-12-22T04:50:44;11.00;;;2.30;;
3068;SDS011;1545;51.728;8.796;2023-12-22T04:53:10;13.90;;;2.90;;
3068;SDS011;1545;51.728;8.796;2023-12-22T04:55:35;11.87;;;2.90;;
3068;SDS011;1545;51.728;8.796;2023-12-22T04:58:01;10.73;;;2.40;;
3068;SDS011;1545;51.728;8.796;2023-12-22T05:00:26;12.77;;;2.80;;
3068;SDS011;1545;51.728;8.796;2023-12-22T05:02:52;15.37;;;2.90;;
3068;SDS011;1545;51.728;8.796;2023-12-22T05:05:17;12.80;;;3.20;;
3068;SDS011;1545;51.728;8.796;2023-12-22T05:07:43;16.67;;;3.23;;
3068;SDS011;1545;51.728;8.796;2023-12-22T05:10:08;7.87;;;2.33;;
3068;SDS011;1545;51.728;8.796;2023-12-22T05:12:34;10.17;;;2.60;;
3068;SDS011;1545;51.728;8.796;2023-12-22T05:14:59;19.30;;;3.20;;
3068;SDS011;1545;51.728;8.796;2023-12-22T05:17:25;14.73;;;2.77;;
3068;SDS011;1545;51.728;8.796;2023-12-22T05:19:50;17.07;;;2.70;;
3068;SDS011;1545;51.728;8.796;2023-12-22T05:22:16;14.90;;;2.57;;
3068;SDS011;1545;51.728;8.796;2023-12-22T05:24:41;21.43;;;2.97;;
3068;SDS011;1545;51.728;8.796;2023-12-22T05:27:06;10.97;;;2.47;;
3068;SDS011;1545;51.728;8.796;2023-12-22T05:29:33;15.33;;;2.97;;
3068;SDS011;1545;51.728;8.796;2023-12-22T05:31:58;14.10;;;2.90;;
3068;SDS011;1545;51.728;8.796;2023-12-22T05:34:24;11.63;;;2.60;;
3068;SDS011;1545;51.728;8.796;2023-12-22T05:36:50;12.47;;;2.93;;
3068;SDS011;1545;51.728;8.796;2023-12-22T05:39:15;11.00;;;2.73;;
3068;SDS011;1545;51.728;8.796;2023-12-22T05:41:41;13.93;;;2.83;;
3068;SDS011;1545;51.728;8.796;2023-12-22T05:44:06;17.70;;;3.43;;
3068;SDS011;1545;51.728;8.796;2023-12-22T05:46:38;9.00;;;2.30;;
3068;SDS011;1545;51.728;8.796;2023-12-22T05:49:04;10.53;;;2.70;;
3068;SDS011;1545;51.728;8.796;2023-12-22T05:51:35;11.57;;;2.60;;
3068;SDS011;1545;51.728;8.796;2023-12-22T05:54:05;12.07;;;2.63;;
3068;SDS011;1545;51.728;8.796;2023-12-22T05:56:32;11.80;;;2.73;;
3068;SDS011;1545;51.728;8.796;2023-12-22T05:58:57;21.23;;;3.13;;
3068;SDS011;1545;51.728;8.796;2023-12-22T06:01:23;15.47;;;2.80;;
3068;SDS011;1545;51.728;8.796;2023-12-22T06:03:48;13.63;;;2.70;;
3068;SDS011;1545;51.728;8.796;2023-12-22T06:06:14;12.57;;;3.17;;
3068;SDS011;1545;51.728;8.796;2023-12-22T06:08:39;15.70;;;2.80;;
3068;SDS011;1545;51.728;8.796;2023-12-22T06:11:06;14.30;;;3.03;;
3068;SDS011;1545;51.728;8.796;2023-12-22T06:13:31;16.33;;;3.10;;
3068;SDS011;1545;51.728;8.796;2023-12-22T06:15:57;18.23;;;3.47;;
3068;SDS011;1545;51.728;8.796;2023-12-22T06:18:22;19.50;;;3.87;;
3068;SDS011;1545;51.728;8.796;2023-12-22T06:20:48;19.03;;;3.63;;
3068;SDS011;1545;51.728;8.796;2023-12-22T06:23:13;20.17;;;3.53;;
3068;SDS011;1545;51.728;8.796;2023-12-22T06:25:39;18.67;;;3.43;;
3068;SDS011;1545;51.728;8.796;2023-12-22T06:28:04;19.60;;;3.60;;
3068;SDS011;1545;51.728;8.796;2023-12-22T06:30:30;21.57;;;3.67;;
3068;SDS011;1545;51.728;8.796;2023-12-22T06:32:55;28.63;;;4.30;;
3068;SDS011;1545;51.728;8.796;2023-12-22T06:35:21;19.87;;;3.77;;
3068;SDS011;1545;51.728;8.796;2023-12-22T06:37:49;20.33;;;3.53;;
3068;SDS011;1545;51.728;8.796;2023-12-22T06:40:14;21.17;;;4.23;;
3068;SDS011;1545;51.728;8.796;2023-12-22T06:42:40;21.60;;;4.20;;
3068;SDS011;1545;51.728;8.796;2023-12-22T06:45:06;31.37;;;4.03;;
3068;SDS011;1545;51.728;8.796;2023-12-22T06:47:32;22.37;;;3.83;;
3068;SDS011;1545;51.728;8.796;2023-12-22T06:49:57;24.03;;;3.87;;
3068;SDS011;1545;51.728;8.796;2023-12-22T06:52:23;25.77;;;4.17;;
3068;SDS011;1545;51.728;8.796;2023-12-22T06:54:48;20.17;;;3.73;;
3068;SDS011;1545;51.728;8.796;2023-12-22T06:57:14;21.70;;;4.50;;
3068;SDS011;1545;51.728;8.796;2023-12-22T06:59:39;24.30;;;4.93;;
3068;SDS011;1545;51.728;8.796;2023-12-22T07:02:05;19.90;;;4.00;;
3068;SDS011;1545;51.728;8.796;2023-12-22T07:04:31;22.87;;;4.10;;
3068;SDS011;1545;51.728;8.796;2023-12-22T07:06:56;20.37;;;3.97;;
3068;SDS011;1545;51.728;8.796;2023-12-22T07:11:51;25.77;;;4.27;;
3068;SDS011;1545;51.728;8.796;2023-12-22T07:14:20;26.47;;;4.47;;
3068;SDS011;1545;51.728;8.796;2023-12-22T07:16:46;19.00;;;3.87;;
3068;SDS011;1545;51.728;8.796;2023-12-22T07:19:11;21.73;;;3.90;;
3068;SDS011;1545;51.728;8.796;2023-12-22T07:21:40;28.77;;;4.20;;
3068;SDS011;1545;51.728;8.796;2023-12-22T07:24:06;28.73;;;4.83;;
3068;SDS011;1545;51.728;8.796;2023-12-22T07:26:32;43.23;;;4.93;;
3068;SDS011;1545;51.728;8.796;2023-12-22T07:28:57;28.13;;;5.07;;
3068;SDS011;1545;51.728;8.796;2023-12-22T07:31:23;22.10;;;4.40;;
3068;SDS011;1545;51.728;8.796;2023-12-22T07:33:49;21.10;;;4.00;;
3068;SDS011;1545;51.728;8.796;2023-12-22T07:36:14;24.87;;;4.50;;
3068;SDS011;1545;51.728;8.796;2023-12-22T07:38:40;23.27;;;4.13;;
3068;SDS011;1545;51.728;8.796;2023-12-22T07:41:05;30.07;;;4.47;;
3068;SDS011;1545;51.728;8.796;2023-12-22T07:43:31;26.83;;;4.43;;
3068;SDS011;1545;51.728;8.796;2023-12-22T07:45:56;28.00;;;4.60;;
3068;SDS011;1545;51.728;8.796;2023-12-22T07:48:22;21.97;;;4.43;;
3068;SDS011;1545;51.728;8.796;2023-12-22T07:50:49;29.17;;;5.10;;
3068;SDS011;1545;51.728;8.796;2023-12-22T07:53:14;26.47;;;4.77;;
3068;SDS011;1545;51.728;8.796;2023-12-22T07:55:40;29.33;;;4.97;;
3068;SDS011;1545;51.728;8.796;2023-12-22T07:58:05;38.77;;;4.83;;
3068;SDS011;1545;51.728;8.796;2023-12-22T08:00:32;22.17;;;4.70;;
3068;SDS011;1545;51.728;8.796;2023-12-22T08:02:58;28.53;;;4.30;;
3068;SDS011;1545;51.728;8.796;2023-12-22T08:05:23;26.20;;;5.10;;
3068;SDS011;1545;51.728;8.796;2023-12-22T08:07:48;27.90;;;4.53;;
3068;SDS011;1545;51.728;8.796;2023-12-22T08:10:14;29.43;;;4.20;;
3068;SDS011;1545;51.728;8.796;2023-12-22T08:12:41;32.33;;;4.80;;
3068;SDS011;1545;51.728;8.796;2023-12-22T08:15:06;28.90;;;4.70;;
3068;SDS011;1545;51.728;8.796;2023-12-22T08:17:35;29.20;;;5.50;;
3068;SDS011;1545;51.728;8.796;2023-12-22T08:20:01;27.80;;;4.57;;
3068;SDS011;1545;51.728;8.796;2023-12-22T08:22:26;33.20;;;5.47;;
3068;SDS011;1545;51.728;8.796;2023-12-22T08:24:52;30.43;;;5.00;;
3068;SDS011;1545;51.728;8.796;2023-12-22T08:27:17;33.17;;;4.93;;
3068;SDS011;1545;51.728;8.796;2023-12-22T08:29:42;23.93;;;4.53;;
3068;SDS011;1545;51.728;8.796;2023-12-22T08:32:09;28.33;;;5.20;;
3068;SDS011;1545;51.728;8.796;2023-12-22T08:34:34;24.50;;;5.43;;
3068;SDS011;1545;51.728;8.796;2023-12-22T08:37:00;27.30;;;4.53;;
3068;SDS011;1545;51.728;8.796;2023-12-22T08:39:25;19.57;;;4.30;;
3068;SDS011;1545;51.728;8.796;2023-12-22T08:41:51;28.63;;;4.40;;
3068;SDS011;1545;51.728;8.796;2023-12-22T08:44:17;22.93;;;4.30;;
3068;SDS011;1545;51.728;8.796;2023-12-22T08:46:42;25.00;;;3.83;;
3068;SDS011;1545;51.728;8.796;2023-12-22T08:49:08;23.40;;;4.60;;
3068;SDS011;1545;51.728;8.796;2023-12-22T08:51:33;26.80;;;4.17;;
3068;SDS011;1545;51.728;8.796;2023-12-22T08:53:59;20.57;;;4.37;;
3068;SDS011;1545;51.728;8.796;2023-12-22T08:56:25;26.00;;;5.50;;
3068;SDS011;1545;51.728;8.796;2023-12-22T08:58:51;23.90;;;4.97;;
3068;SDS011;1545;51.728;8.796;2023-12-22T09:01:19;23.83;;;4.50;;
3068;SDS011;1545;51.728;8.796;2023-12-22T09:03:45;25.27;;;4.20;;
3068;SDS011;1545;51.728;8.796;2023-12-22T09:06:14;24.00;;;3.63;;
3068;SDS011;1545;51.728;8.796;2023-12-22T09:08:41;21.20;;;3.70;;
3068;SDS011;1545;51.728;8.796;2023-12-22T09:11:07;21.47;;;3.97;;
3068;SDS011;1545;51.728;8.796;2023-12-22T09:13:33;16.97;;;3.57;;
3068;SDS011;1545;51.728;8.796;2023-12-22T09:16:00;10.30;;;2.50;;
3068;SDS011;1545;51.728;8.796;2023-12-22T09:18:27;13.07;;;2.90;;
3068;SDS011;1545;51.728;8.796;2023-12-22T09:20:53;9.90;;;2.93;;
3068;SDS011;1545;51.728;8.796;2023-12-22T09:23:18;5.53;;;2.03;;
3068;SDS011;1545;51.728;8.796;2023-12-22T09:25:44;9.97;;;2.17;;
3068;SDS011;1545;51.728;8.796;2023-12-22T09:28:10;7.30;;;2.53;;
3068;SDS011;1545;51.728;8.796;2023-12-22T09:30:36;6.93;;;1.93;;
3068;SDS011;1545;51.728;8.796;2023-12-22T09:33:01;8.43;;;2.33;;
3068;SDS011;1545;51.728;8.796;2023-12-22T09:35:27;10.77;;;2.83;;
3068;SDS011;1545;51.728;8.796;2023-12-22T09:37:53;14.53;;;2.57;;
3068;SDS011;1545;51.728;8.796;2023-12-22T09:40:18;9.30;;;2.70;;
3068;SDS011;1545;51.728;8.796;2023-12-22T09:42:44;12.00;;;3.40;;
3068;SDS011;1545;51.728;8.796;2023-12-22T09:45:11;12.70;;;3.40;;
3068;SDS011;1545;51.728;8.796;2023-12-22T09:47:39;12.47;;;3.87;;
3068;SDS011;1545;51.728;8.796;2023-12-22T09:50:07;12.67;;;4.10;;
3068;SDS011;1545;51.728;8.796;2023-12-22T09:52:33;10.13;;;4.07;;
3068;SDS011;1545;51.728;8.796;2023-12-22T09:55:01;12.03;;;3.70;;
3068;SDS011;1545;51.728;8.796;2023-12-22T09:57:28;14.13;;;3.90;;
3068;SDS011;1545;51.728;8.796;2023-12-22T09:59:55;15.13;;;3.50;;
3068;SDS011;1545;51.728;8.796;2023-12-22T10:02:24;13.20;;;3.70;;
3068;SDS011;1545;51.728;8.796;2023-12-22T10:04:50;8.30;;;3.17;;
3068;SDS011;1545;51.728;8.796;2023-12-22T10:07:16;11.87;;;3.40;;
3068;SDS011;1545;51.728;8.796;2023-12-22T10:09:42;11.77;;;3.53;;
3068;SDS011;1545;51.728;8.796;2023-12-22T10:12:11;10.20;;;3.20;;
3068;SDS011;1545;51.728;8.796;2023-12-22T10:14:37;14.70;;;4.07;;
3068;SDS011;1545;51.728;8.796;2023-12-22T10:17:03;12.63;;;3.17;;
3068;SDS011;1545;51.728;8.796;2023-12-22T10:19:29;9.73;;;2.87;;
3068;SDS011;1545;51.728;8.796;2023-12-22T10:21:55;16.50;;;3.37;;
3068;SDS011;1545;51.728;8.796;2023-12-22T10:24:36;19.67;;;3.70;;
3068;SDS011;1545;51.728;8.796;2023-12-22T10:27:09;9.57;;;2.80;;
3068;SDS011;1545;51.728;8.796;2023-12-22T10:29:36;8.37;;;2.60;;
3068;SDS011;1545;51.728;8.796;2023-12-22T10:32:02;13.07;;;3.10;;
3068;SDS011;1545;51.728;8.796;2023-12-22T10:34:29;14.20;;;3.20;;
3068;SDS011;1545;51.728;8.796;2023-12-22T10:36:55;19.73;;;3.00;;
3068;SDS011;1545;51.728;8.796;2023-12-22T10:39:21;11.13;;;3.33;;
3068;SDS011;1545;51.728;8.796;2023-12-22T10:41:47;10.83;;;2.97;;
3068;SDS011;1545;51.728;8.796;2023-12-22T10:44:16;10.37;;;3.20;;
3068;SDS011;1545;51.728;8.796;2023-12-22T10:46:42;12.53;;;3.07;;
3068;SDS011;1545;51.728;8.796;2023-12-22T10:49:08;9.07;;;2.90;;
3068;SDS011;1545;51.728;8.796;2023-12-22T10:51:33;11.43;;;3.03;;
3068;SDS011;1545;51.728;8.796;2023-12-22T10:53:59;9.53;;;2.90;;
3068;SDS011;1545;51.728;8.796;2023-12-22T10:56:24;13.23;;;3.37;;
3068;SDS011;1545;51.728;8.796;2023-12-22T10:58:50;7.80;;;2.87;;
3068;SDS011;1545;51.728;8.796;2023-12-22T11:01:17;12.13;;;2.90;;
3068;SDS011;1545;51.728;8.796;2023-12-22T11:03:45;12.07;;;2.73;;
3068;SDS011;1545;51.728;8.796;2023-12-22T11:06:15;10.40;;;2.97;;
3068;SDS011;1545;51.728;8.796;2023-12-22T11:08:42;10.97;;;2.70;;
3068;SDS011;1545;51.728;8.796;2023-12-22T11:11:20;15.93;;;3.13;;
3068;SDS011;1545;51.728;8.796;2023-12-22T11:14:08;11.80;;;2.80;;
3068;SDS011;1545;51.728;8.796;2023-12-22T11:16:35;11.90;;;2.90;;
3068;SDS011;1545;51.728;8.796;2023-12-22T11:19:01;7.70;;;2.77;;
3068;SDS011;1545;51.728;8.796;2023-12-22T11:21:29;10.20;;;3.10;;
3068;SDS011;1545;51.728;8.796;2023-12-22T11:23:55;11.40;;;3.63;;
3068;SDS011;1545;51.728;8.796;2023-12-22T11:26:22;13.07;;;3.27;;
3068;SDS011;1545;51.728;8.796;2023-12-22T11:28:49;13.47;;;3.20;;
3068;SDS011;1545;51.728;8.796;2023-12-22T11:31:16;8.30;;;2.70;;
3068;SDS011;1545;51.728;8.796;2023-12-22T11:33:43;14.87;;;3.57;;
3068;SDS011;1545;51.728;8.796;2023-12-22T11:36:13;11.60;;;3.40;;
3068;SDS011;1545;51.728;8.796;2023-12-22T11:38:40;14.07;;;3.43;;
3068;SDS011;1545;51.728;8.796;2023-12-22T11:41:07;16.93;;;4.50;;
3068;SDS011;1545;51.728;8.796;2023-12-22T11:43:38;13.27;;;4.17;;
3068;SDS011;1545;51.728;8.796;2023-12-22T11:46:05;16.20;;;4.50;;
3068;SDS011;1545;51.728;8.796;2023-12-22T11:48:31;16.23;;;4.17;;
3068;SDS011;1545;51.728;8.796;2023-12-22T11:50:57;13.70;;;3.67;;
3068;SDS011;1545;51.728;8.796;2023-12-22T11:53:24;19.20;;;4.13;;
3068;SDS011;1545;51.728;8.796;2023-12-22T11:56:03;17.03;;;4.37;;
3068;SDS011;1545;51.728;8.796;2023-12-22T12:01:02;11.73;;;3.20;;
3068;SDS011;1545;51.728;8.796;2023-12-22T12:03:30;10.17;;;2.97;;
3068;SDS011;1545;51.728;8.796;2023-12-22T12:06:16;14.97;;;3.80;;
3068;SDS011;1545;51.728;8.796;2023-12-22T12:08:46;11.40;;;3.20;;
3068;SDS011;1545;51.728;8.796;2023-12-22T12:11:13;10.53;;;2.97;;
3068;SDS011;1545;51.728;8.796;2023-12-22T12:13:41;22.43;;;4.47;;
3068;SDS011;1545;51.728;8.796;2023-12-22T12:16:08;10.77;;;2.87;;
3068;SDS011;1545;51.728;8.796;2023-12-22T12:18:33;11.43;;;3.63;;
3068;SDS011;1545;51.728;8.796;2023-12-22T12:21:00;11.20;;;3.10;;
3068;SDS011;1545;51.728;8.796;2023-12-22T12:23:26;10.90;;;2.20;;
3068;SDS011;1545;51.728;8.796;2023-12-22T12:25:53;7.73;;;2.63;;
3068;SDS011;1545;51.728;8.796;2023-12-22T12:28:29;7.83;;;2.30;;
3068;SDS011;1545;51.728;8.796;2023-12-22T12:30:56;6.73;;;2.17;;
3068;SDS011;1545;51.728;8.796;2023-12-22T12:33:28;4.63;;;2.20;;
3068;SDS011;1545;51.728;8.796;2023-12-22T12:35:55;6.07;;;2.00;;
3068;SDS011;1545;51.728;8.796;2023-12-22T12:38:23;11.87;;;2.27;;
3068;SDS011;1545;51.728;8.796;2023-12-22T12:41:12;4.20;;;1.90;;
3068;SDS011;1545;51.728;8.796;2023-12-22T12:43:41;4.70;;;2.17;;
3068;SDS011;1545;51.728;8.796;2023-12-22T12:46:08;5.43;;;2.00;;
3068;SDS011;1545;51.728;8.796;2023-12-22T12:48:34;4.83;;;2.13;;
3068;SDS011;1545;51.728;8.796;2023-12-22T12:51:06;6.40;;;2.00;;
3068;SDS011;1545;51.728;8.796;2023-12-22T12:53:32;4.23;;;2.07;;
3068;SDS011;1545;51.728;8.796;2023-12-22T12:55:58;2.33;;;1.40;;
3068;SDS011;1545;51.728;8.796;2023-12-22T12:58:30;6.00;;;1.97;;
3068;SDS011;1545;51.728;8.796;2023-12-22T13:01:09;7.17;;;2.10;;
3068;SDS011;1545;51.728;8.796;2023-12-22T13:06:19;4.50;;;1.97;;
3068;SDS011;1545;51.728;8.796;2023-12-22T13:08:48;5.00;;;1.60;;
3068;SDS011;1545;51.728;8.796;2023-12-22T13:11:24;9.73;;;2.30;;
3068;SDS011;1545;51.728;8.796;2023-12-22T13:13:51;7.93;;;2.57;;
3068;SDS011;1545;51.728;8.796;2023-12-22T13:16:21;5.70;;;1.70;;
3068;SDS011;1545;51.728;8.796;2023-12-22T13:18:51;2.87;;;1.90;;
3068;SDS011;1545;51.728;8.796;2023-12-22T13:21:17;4.07;;;1.50;;
3068;SDS011;1545;51.728;8.796;2023-12-22T13:23:43;5.47;;;1.90;;
3068;SDS011;1545;51.728;8.796;2023-12-22T13:26:18;6.00;;;2.03;;
3068;SDS011;1545;51.728;8.796;2023-12-22T13:28:44;4.43;;;2.07;;
3068;SDS011;1545;51.728;8.796;2023-12-22T13:31:10;5.27;;;2.17;;
3068;SDS011;1545;51.728;8.796;2023-12-22T13:33:38;7.97;;;2.53;;
3068;SDS011;1545;51.728;8.796;2023-12-22T13:36:04;5.80;;;2.00;;
3068;SDS011;1545;51.728;8.796;2023-12-22T13:38:30;8.63;;;2.40;;
3068;SDS011;1545;51.728;8.796;2023-12-22T13:40:56;5.53;;;2.07;;
3068;SDS011;1545;51.728;8.796;2023-12-22T13:43:22;8.47;;;2.90;;
3068;SDS011;1545;51.728;8.796;2023-12-22T13:45:52;7.20;;;2.00;;
3068;SDS011;1545;51.728;8.796;2023-12-22T13:48:18;5.13;;;1.97;;
3068;SDS011;1545;51.728;8.796;2023-12-22T13:50:54;8.87;;;2.30;;
3068;SDS011;1545;51.728;8.796;2023-12-22T13:53:23;4.57;;;1.90;;
3068;SDS011;1545;51.728;8.796;2023-12-22T13:55:59;4.53;;;2.17;;
3068;SDS011;1545;51.728;8.796;2023-12-22T13:58:25;4.10;;;2.07;;
3068;SDS011;1545;51.728;8.796;2023-12-22T14:00:52;5.30;;;2.00;;
3068;SDS011;1545;51.728;8.796;2023-12-22T14:03:18;10.43;;;2.20;;
3068;SDS011;1545;51.728;8.796;2023-12-22T14:05:49;7.53;;;2.57;;
3068;SDS011;1545;51.728;8.796;2023-12-22T14:08:17;7.23;;;2.20;;
3068;SDS011;1545;51.728;8.796;2023-12-22T14:10:46;9.93;;;2.93;;
3068;SDS011;1545;51.728;8.796;2023-12-22T14:13:14;5.27;;;2.33;;
3068;SDS011;1545;51.728;8.796;2023-12-22T14:15:43;12.33;;;3.23;;
3068;SDS011;1545;51.728;8.796;2023-12-22T14:18:09;6.23;;;2.50;;
3068;SDS011;1545;51.728;8.796;2023-12-22T14:20:35;10.97;;;3.00;;
3068;SDS011;1545;51.728;8.796;2023-12-22T14:23:00;6.60;;;2.60;;
3068;SDS011;1545;51.728;8.796;2023-12-22T14:25:26;7.60;;;2.50;;
3068;SDS011;1545;51.728;8.796;2023-12-22T14:27:52;6.20;;;2.30;;
3068;SDS011;1545;51.728;8.796;2023-12-22T14:30:22;7.27;;;2.50;;
3068;SDS011;1545;51.728;8.796;2023-12-22T14:32:47;7.63;;;2.30;;
3068;SDS011;1545;51.728;8.796;2023-12-22T14:35:13;6.30;;;2.80;;
3068;SDS011;1545;51.728;8.796;2023-12-22T14:37:38;5.60;;;2.40;;
3068;SDS011;1545;51.728;8.796;2023-12-22T14:40:04;7.87;;;2.67;;
3068;SDS011;1545;51.728;8.796;2023-12-22T14:42:31;11.82;;;3.53;;
3068;SDS011;1545;51.728;8.796;2023-12-22T14:44:57;12.07;;;3.07;;
3068;SDS011;1545;51.728;8.796;2023-12-22T14:47:22;6.90;;;2.60;;
3068;SDS011;1545;51.728;8.796;2023-12-22T14:49:48;7.23;;;2.50;;
3068;SDS011;1545;51.728;8.796;2023-12-22T14:52:13;7.17;;;3.13;;
3068;SDS011;1545;51.728;8.796;2023-12-22T14:54:39;8.63;;;3.03;;
3068;SDS011;1545;51.728;8.796;2023-12-22T14:57:04;6.83;;;3.00;;
3068;SDS011;1545;51.728;8.796;2023-12-22T14:59:30;6.67;;;2.97;;
3068;SDS011;1545;51.728;8.796;2023-12-22T15:01:55;7.43;;;3.37;;
3068;SDS011;1545;51.728;8.796;2023-12-22T15:04:21;11.37;;;3.60;;
3068;SDS011;1545;51.728;8.796;2023-12-22T15:06:48;11.13;;;3.80;;
3068;SDS011;1545;51.728;8.796;2023-12-22T15:09:14;10.47;;;3.47;;
3068;SDS011;1545;51.728;8.796;2023-12-22T15:11:43;6.00;;;3.13;;